createdAt,value
2022-10-14T00:01:35.289Z,26.68
2022-10-14T00:04:04.808Z,26.78
2022-10-14T00:06:35.128Z,26.90
2022-10-14T00:09:08.094Z,26.96
2022-10-14T00:11:38.895Z,27.24
2022-10-14T00:14:11.746Z,27.46
2022-10-14T00:16:43.175Z,27.52
2022-10-14T00:19:13.862Z,27.80
2022-10-14T00:21:45.710Z,28.01
2022-10-14T00:24:19.787Z,27.86
2022-10-14T00:26:48.981Z,27.38
2022-10-14T00:29:20.248Z,26.94
2022-10-14T00:31:49.876Z,26.41
2022-10-14T00:34:19.826Z,25.99
2022-10-14T00:36:49.151Z,25.80
2022-10-14T00:39:20.878Z,25.17
2022-10-14T00:41:50.033Z,25.44
2022-10-14T00:44:18.962Z,25.23
2022-10-14T00:46:49.996Z,25.83
2022-10-14T00:49:27.383Z,26.15
2022-10-14T00:52:12.883Z,26.04
2022-10-14T00:54:53.106Z,25.96
2022-10-14T00:57:23.877Z,25.90
2022-10-14T00:59:59.823Z,25.61
2022-10-14T01:02:29.531Z,25.51
2022-10-14T01:05:00.029Z,24.88
2022-10-14T01:07:53.783Z,24.35
2022-10-14T01:10:32.241Z,23.95
2022-10-14T01:13:25.464Z,23.55
2022-10-14T01:16:03.976Z,23.20
2022-10-14T01:18:46.347Z,22.82
2022-10-14T01:21:30.251Z,22.55
2022-10-14T01:24:17.261Z,22.26
2022-10-14T01:27:02.380Z,22.08
2022-10-14T01:29:47.957Z,21.83
2022-10-14T01:33:08.030Z,21.54
2022-10-14T01:36:03.739Z,21.27
2022-10-14T01:38:56.610Z,21.11
2022-10-14T01:41:41.552Z,20.95
2022-10-14T01:44:13.457Z,20.72
2022-10-14T01:46:47.792Z,20.66
2022-10-14T01:49:25.463Z,20.51
2022-10-14T01:52:03.554Z,20.40
2022-10-14T01:54:37.030Z,20.33
2022-10-14T01:57:15.289Z,20.18
2022-10-14T01:59:47.159Z,20.10
2022-10-14T02:02:16.625Z,20.06
2022-10-14T02:04:46.517Z,20.00
2022-10-14T02:07:33.596Z,19.89
2022-10-14T02:10:28.848Z,19.77
2022-10-14T02:13:40.770Z,19.69
2022-10-14T02:16:23.589Z,19.57
2022-10-14T02:19:03.062Z,19.60
2022-10-14T02:21:59.590Z,19.52
2022-10-14T02:24:41.475Z,19.37
2022-10-14T02:27:17.651Z,19.23
2022-10-14T02:29:48.819Z,19.09
2022-10-14T02:32:21.593Z,18.97
2022-10-14T02:34:56.357Z,18.90
2022-10-14T02:37:28.841Z,18.83
2022-10-14T02:40:09.335Z,18.71
2022-10-14T02:42:38.510Z,18.58
2022-10-14T02:45:08.955Z,18.48
2022-10-14T02:47:38.322Z,18.30
2022-10-14T02:50:08.191Z,18.20
2022-10-14T02:52:37.324Z,18.24
2022-10-14T02:55:06.852Z,18.19
2022-10-14T02:57:36.639Z,18.17
2022-10-14T03:00:07.518Z,18.12
2022-10-14T03:02:37.636Z,18.08
2022-10-14T03:05:07.558Z,18.00
2022-10-14T03:07:36.835Z,17.91
2022-10-14T03:10:10.330Z,17.81
2022-10-14T03:12:39.791Z,17.73
2022-10-14T03:15:15.385Z,17.63
2022-10-14T03:17:44.596Z,17.56
2022-10-14T03:20:14.643Z,17.44
2022-10-14T03:22:49.325Z,17.28
2022-10-14T03:25:20.050Z,17.19
2022-10-14T03:28:05.971Z,17.11
2022-10-14T03:30:56.539Z,17.08
2022-10-14T03:33:41.443Z,17.06
2022-10-14T03:36:14.021Z,17.04
2022-10-14T03:38:53.731Z,16.99
2022-10-14T03:41:35.624Z,16.88
2022-10-14T03:44:05.183Z,16.81
2022-10-14T03:46:36.623Z,16.90
2022-10-14T03:49:05.969Z,16.78
2022-10-14T03:51:35.302Z,16.72
2022-10-14T03:54:14.948Z,16.69
2022-10-14T03:56:44.200Z,16.62
2022-10-14T03:59:14.154Z,16.54
2022-10-14T04:01:48.431Z,16.53
2022-10-14T04:04:26.864Z,16.42
2022-10-14T04:06:57.121Z,16.33
2022-10-14T04:09:28.231Z,16.27
2022-10-14T04:12:00.020Z,16.26
2022-10-14T04:14:52.486Z,16.20
2022-10-14T04:17:22.723Z,16.07
2022-10-14T04:19:52.631Z,16.03
2022-10-14T04:22:23.973Z,15.98
2022-10-14T04:24:56.650Z,15.91
2022-10-14T04:27:26.225Z,15.84
2022-10-14T04:30:06.128Z,15.81
2022-10-14T04:32:47.195Z,15.76
2022-10-14T04:35:17.911Z,15.76
2022-10-14T04:37:51.303Z,15.69
2022-10-14T04:40:27.041Z,15.65
2022-10-14T04:42:58.795Z,15.63
2022-10-14T04:45:39.452Z,15.55
2022-10-14T04:48:11.175Z,15.46
2022-10-14T04:50:44.049Z,15.38
2022-10-14T04:53:42.451Z,15.25
2022-10-14T04:56:29.889Z,15.25
2022-10-14T04:59:05.009Z,15.24
2022-10-14T05:02:09.377Z,15.19
2022-10-14T05:04:48.501Z,15.18
2022-10-14T05:07:18.516Z,15.14
2022-10-14T05:09:55.482Z,15.09
2022-10-14T05:12:34.828Z,15.00
2022-10-14T05:15:07.242Z,14.93
2022-10-14T05:17:45.555Z,14.98
2022-10-14T05:20:18.052Z,14.97
2022-10-14T05:22:52.144Z,14.88
2022-10-14T05:25:21.627Z,14.83
2022-10-14T05:27:51.789Z,14.82
2022-10-14T05:30:20.854Z,14.81
2022-10-14T05:32:53.998Z,14.78
2022-10-14T05:35:46.330Z,14.74
2022-10-14T05:38:13.264Z,14.64
2022-10-14T05:40:52.127Z,14.54
2022-10-14T05:43:21.972Z,14.52
2022-10-14T05:45:51.448Z,14.51
2022-10-14T05:48:20.610Z,14.49
2022-10-14T05:50:50.759Z,14.43
2022-10-14T05:53:22.796Z,14.38
2022-10-14T05:56:06.549Z,14.37
2022-10-14T05:58:35.862Z,14.24
2022-10-14T06:01:07.658Z,14.16
2022-10-14T06:03:37.218Z,14.17
2022-10-14T06:06:07.022Z,14.09
2022-10-14T06:08:36.050Z,14.00
2022-10-14T06:11:07.192Z,14.02
2022-10-14T06:13:37.219Z,13.96
2022-10-14T06:16:10.980Z,13.83
2022-10-14T06:18:40.120Z,13.78
2022-10-14T06:21:09.247Z,13.78
2022-10-14T06:23:38.268Z,13.72
2022-10-14T06:26:09.837Z,13.71
2022-10-14T06:28:39.724Z,13.61
2022-10-14T06:31:08.794Z,13.11
2022-10-14T06:33:37.963Z,13.14
2022-10-14T06:36:08.067Z,13.34
2022-10-14T06:38:37.135Z,13.56
2022-10-14T06:41:06.150Z,13.46
2022-10-14T06:43:36.180Z,13.52
2022-10-14T06:46:06.346Z,13.46
2022-10-14T06:48:35.795Z,13.41
2022-10-14T06:51:07.063Z,13.38
2022-10-14T06:53:36.123Z,13.10
2022-10-14T06:56:08.069Z,12.68
2022-10-14T06:58:37.182Z,12.93
2022-10-14T07:01:07.591Z,13.22
2022-10-14T07:03:40.974Z,13.23
2022-10-14T07:06:10.574Z,13.30
2022-10-14T07:08:39.651Z,13.20
2022-10-14T07:11:09.070Z,13.20
2022-10-14T07:13:38.851Z,13.16
2022-10-14T07:16:08.039Z,13.17
2022-10-14T07:18:37.007Z,13.15
2022-10-14T07:21:07.097Z,13.00
2022-10-14T07:23:36.302Z,12.92
2022-10-14T07:26:05.542Z,13.07
2022-10-14T07:28:35.055Z,13.10
2022-10-14T07:31:10.550Z,13.12
2022-10-14T07:33:41.252Z,13.11
2022-10-14T07:36:15.132Z,13.09
2022-10-14T07:38:47.028Z,13.05
2022-10-14T07:41:22.641Z,12.96
2022-10-14T07:43:55.209Z,12.97
2022-10-14T07:46:35.428Z,12.94
2022-10-14T07:49:08.228Z,12.87
2022-10-14T07:51:37.896Z,12.82
2022-10-14T07:54:13.829Z,12.82
2022-10-14T07:56:46.721Z,12.74
2022-10-14T07:59:16.511Z,12.73
2022-10-14T08:01:48.681Z,12.70
2022-10-14T08:04:19.428Z,12.65
2022-10-14T08:06:54.672Z,12.60
2022-10-14T08:09:34.888Z,12.60
2022-10-14T08:12:04.582Z,12.61
2022-10-14T08:14:33.952Z,12.58
2022-10-14T08:17:10.919Z,12.53
2022-10-14T08:19:40.362Z,12.47
2022-10-14T08:22:12.376Z,12.45
2022-10-14T08:24:45.610Z,12.41
2022-10-14T08:27:17.186Z,12.36
2022-10-14T08:29:48.518Z,12.31
2022-10-14T08:32:21.505Z,12.21
2022-10-14T08:34:50.861Z,12.17
2022-10-14T08:37:20.115Z,12.12
2022-10-14T08:39:50.289Z,12.10
2022-10-14T08:42:25.065Z,12.10
2022-10-14T08:45:33.545Z,12.03
2022-10-14T08:48:13.344Z,11.98
2022-10-14T08:50:58.390Z,12.04
2022-10-14T08:53:41.401Z,12.06
2022-10-14T08:56:13.302Z,12.03
2022-10-14T08:58:52.293Z,11.93
2022-10-14T09:01:37.303Z,11.88
2022-10-14T09:04:08.910Z,11.61
2022-10-14T09:06:42.039Z,11.72
2022-10-14T09:09:23.779Z,11.72
2022-10-14T09:12:04.583Z,11.69
2022-10-14T09:14:38.322Z,11.73
2022-10-14T09:17:15.785Z,11.69
2022-10-14T09:20:16.437Z,11.58
2022-10-14T09:22:47.287Z,11.61
2022-10-14T09:25:18.930Z,11.52
2022-10-14T09:27:48.136Z,10.60
2022-10-14T09:30:22.015Z,11.09
2022-10-14T09:32:56.325Z,11.35
2022-10-14T09:35:34.606Z,11.33
2022-10-14T09:38:06.758Z,11.37
2022-10-14T09:40:38.016Z,11.46
2022-10-14T09:43:09.955Z,11.39
2022-10-14T09:46:08.688Z,11.30
2022-10-14T09:48:47.233Z,11.35
2022-10-14T09:51:30.104Z,11.27
2022-10-14T09:54:03.417Z,10.51
2022-10-14T09:56:43.572Z,10.83
2022-10-14T09:59:22.584Z,11.03
2022-10-14T10:01:54.091Z,11.13
2022-10-14T10:04:48.124Z,11.06
2022-10-14T10:07:30.479Z,11.00
2022-10-14T10:10:06.331Z,10.73
2022-10-14T10:12:36.790Z,10.21
2022-10-14T10:15:08.215Z,10.49
2022-10-14T10:17:41.568Z,10.78
2022-10-14T10:20:19.539Z,10.86
2022-10-14T10:22:48.668Z,10.91
2022-10-14T10:25:20.638Z,10.75
2022-10-14T10:27:50.444Z,11.00
2022-10-14T10:30:22.121Z,10.92
2022-10-14T10:32:56.661Z,10.79
2022-10-14T10:35:48.969Z,10.93
2022-10-14T10:38:32.745Z,10.91
2022-10-14T10:41:04.183Z,10.86
2022-10-14T10:44:09.959Z,10.85
2022-10-14T10:47:04.953Z,10.87
2022-10-14T10:50:15.382Z,10.84
2022-10-14T10:53:18.185Z,10.83
2022-10-14T10:55:55.967Z,10.80
2022-10-14T10:58:28.552Z,10.83
2022-10-14T11:01:25.319Z,10.85
2022-10-14T11:04:32.146Z,10.78
2022-10-14T11:07:49.101Z,10.71
2022-10-14T11:10:44.718Z,10.68
2022-10-14T11:13:37.929Z,10.65
2022-10-14T11:16:43.606Z,10.58
2022-10-14T11:19:42.054Z,10.58
2022-10-14T11:23:00.280Z,10.55
2022-10-14T11:26:12.635Z,10.51
2022-10-14T11:29:17.057Z,10.48
2022-10-14T11:32:05.086Z,10.52
2022-10-14T11:34:44.754Z,10.46
2022-10-14T11:37:40.248Z,10.47
2022-10-14T11:40:50.636Z,10.37
2022-10-14T11:43:25.710Z,10.37
2022-10-14T11:46:36.355Z,10.42
2022-10-14T11:49:21.013Z,10.47
2022-10-14T11:52:12.925Z,10.42
2022-10-14T11:54:48.623Z,10.32
2022-10-14T11:57:33.619Z,10.30
2022-10-14T12:00:06.814Z,10.25
2022-10-14T12:03:36.126Z,10.25
2022-10-14T12:06:44.886Z,10.21
2022-10-14T12:09:48.874Z,10.28
2022-10-14T12:12:21.024Z,10.28
2022-10-14T12:14:56.258Z,10.22
2022-10-14T12:17:47.458Z,10.16
2022-10-14T12:20:21.227Z,10.15
2022-10-14T12:22:51.594Z,10.13
2022-10-14T12:25:24.294Z,10.03
2022-10-14T12:27:54.448Z,9.99
2022-10-14T12:30:37.714Z,10.06
2022-10-14T12:33:22.655Z,10.04
2022-10-14T12:36:02.012Z,10.00
2022-10-14T12:38:35.338Z,10.01
2022-10-14T12:41:40.499Z,9.98
2022-10-14T12:44:19.524Z,10.02
2022-10-14T12:46:51.290Z,9.99
2022-10-14T12:49:29.807Z,9.96
2022-10-14T12:52:05.924Z,9.95
2022-10-14T12:54:38.438Z,9.92
2022-10-14T12:57:34.375Z,9.87
2022-10-14T13:00:27.501Z,9.81
2022-10-14T13:03:05.268Z,9.84
2022-10-14T13:05:38.724Z,9.73
2022-10-14T13:08:12.532Z,9.71
2022-10-14T13:10:46.108Z,9.68
2022-10-14T13:13:48.551Z,9.64
2022-10-14T13:16:26.378Z,9.59
2022-10-14T13:19:02.709Z,9.52
2022-10-14T13:21:37.827Z,9.55
2022-10-14T13:24:27.004Z,9.53
2022-10-14T13:26:56.326Z,9.53
2022-10-14T13:29:34.558Z,9.53
2022-10-14T13:32:22.690Z,9.48
2022-10-14T13:35:04.124Z,9.45
2022-10-14T13:37:44.823Z,9.43
2022-10-14T13:40:43.830Z,9.41
2022-10-14T13:43:22.260Z,9.49
2022-10-14T13:46:05.506Z,9.46
2022-10-14T13:48:38.561Z,9.43
2022-10-14T13:51:35.153Z,9.40
2022-10-14T13:54:11.179Z,9.33
2022-10-14T13:56:40.222Z,9.38
2022-10-14T13:59:43.509Z,9.36
2022-10-14T14:02:21.970Z,9.28
2022-10-14T14:04:57.099Z,9.37
2022-10-14T14:10:25.453Z,9.42
2022-10-14T14:12:55.010Z,9.43
2022-10-14T14:15:30.036Z,9.42
2022-10-14T14:17:59.191Z,9.41
2022-10-14T14:20:30.333Z,9.43
2022-10-14T14:23:00.365Z,9.38
2022-10-14T14:25:34.546Z,9.29
2022-10-14T14:28:09.163Z,9.27
2022-10-14T14:30:40.682Z,9.32
2022-10-14T14:33:14.749Z,9.28
2022-10-14T14:35:53.857Z,9.27
2022-10-14T14:38:37.597Z,9.24
2022-10-14T14:41:18.713Z,9.22
2022-10-14T14:43:57.370Z,9.24
2022-10-14T14:46:42.489Z,9.16
2022-10-14T14:49:17.717Z,9.17
2022-10-14T14:51:47.378Z,9.16
2022-10-14T14:54:22.245Z,9.14
2022-10-14T14:57:03.441Z,9.16
2022-10-14T14:59:39.650Z,9.14
2022-10-14T15:02:23.381Z,9.21
2022-10-14T15:05:10.613Z,9.22
2022-10-14T15:07:44.585Z,9.18
2022-10-14T15:10:26.558Z,9.13
2022-10-14T15:12:58.686Z,9.10
2022-10-14T15:15:35.495Z,9.17
2022-10-14T15:18:08.141Z,9.22
2022-10-14T15:20:38.910Z,9.24
2022-10-14T15:23:41.819Z,9.26
2022-10-14T15:26:29.512Z,9.13
2022-10-14T15:32:15.446Z,9.28
2022-10-14T15:34:44.982Z,9.28
2022-10-14T15:37:14.739Z,9.30
2022-10-14T15:39:43.945Z,9.33
2022-10-14T15:42:13.932Z,9.35
2022-10-14T15:44:42.984Z,9.39
2022-10-14T15:47:23.235Z,9.39
2022-10-14T15:49:52.440Z,9.42
2022-10-14T15:52:24.432Z,9.46
2022-10-14T15:54:59.530Z,9.52
2022-10-14T15:57:28.750Z,9.57
2022-10-14T15:59:58.078Z,9.53
2022-10-14T16:02:34.346Z,9.36
2022-10-14T16:05:20.437Z,9.49
2022-10-14T16:07:50.733Z,9.61
2022-10-14T16:10:22.267Z,9.77
2022-10-14T16:12:51.728Z,9.85
2022-10-14T16:15:29.478Z,9.87
2022-10-14T16:17:59.189Z,9.93
2022-10-14T16:20:28.818Z,9.95
2022-10-14T16:22:59.214Z,10.03
2022-10-14T16:25:49.903Z,10.07
2022-10-14T16:28:20.358Z,10.15
2022-10-14T16:30:51.004Z,10.19
2022-10-14T16:33:25.019Z,10.25
2022-10-14T16:35:56.290Z,10.28
2022-10-14T16:38:25.807Z,10.34
2022-10-14T16:40:59.300Z,10.13
2022-10-14T16:43:29.565Z,9.99
2022-10-14T16:46:00.527Z,10.30
2022-10-14T16:48:30.196Z,10.46
2022-10-14T16:50:59.258Z,10.58
2022-10-14T16:53:42.422Z,10.64
2022-10-14T16:56:38.543Z,10.80
2022-10-14T16:59:09.080Z,10.91
2022-10-14T17:01:38.212Z,11.00
2022-10-14T17:04:14.778Z,11.11
2022-10-14T17:06:43.865Z,11.18
2022-10-14T17:09:17.122Z,11.29
2022-10-14T17:11:46.697Z,11.40
2022-10-14T17:14:19.209Z,11.46
2022-10-14T17:16:49.002Z,11.50
2022-10-14T17:19:18.300Z,11.60
2022-10-14T17:21:49.663Z,11.78
2022-10-14T17:24:18.916Z,11.97
2022-10-14T17:26:48.009Z,11.99
2022-10-14T17:29:17.054Z,12.05
2022-10-14T17:31:47.778Z,12.29
2022-10-14T17:34:16.954Z,12.40
2022-10-14T17:36:46.009Z,12.49
2022-10-14T17:39:21.282Z,12.64
2022-10-14T17:41:56.624Z,12.66
2022-10-14T17:44:25.742Z,12.83
2022-10-14T17:46:54.818Z,12.99
2022-10-14T17:49:23.818Z,13.15
2022-10-14T17:51:52.876Z,13.16
2022-10-14T17:54:21.921Z,13.31
2022-10-14T17:56:50.949Z,13.52
2022-10-14T17:59:19.986Z,13.63
2022-10-14T18:02:02.130Z,13.74
2022-10-14T18:04:33.239Z,14.02
2022-10-14T18:07:02.774Z,14.12
2022-10-14T18:09:31.764Z,14.32
2022-10-14T18:12:08.650Z,14.26
2022-10-14T18:14:41.312Z,14.42
2022-10-14T18:17:13.147Z,14.85
2022-10-14T18:19:46.136Z,15.07
2022-10-14T18:22:19.030Z,15.24
2022-10-14T18:24:48.322Z,15.56
2022-10-14T18:27:17.357Z,15.76
2022-10-14T18:29:46.619Z,15.94
2022-10-14T18:32:15.580Z,16.10
2022-10-14T18:34:47.627Z,16.06
2022-10-14T18:37:16.733Z,16.29
2022-10-14T18:39:45.707Z,16.47
2022-10-14T18:42:17.193Z,16.63
2022-10-14T18:44:49.171Z,16.64
2022-10-14T18:47:18.369Z,16.71
2022-10-14T18:49:50.413Z,16.93
2022-10-14T18:52:21.681Z,17.17
2022-10-14T18:54:51.103Z,17.42
2022-10-14T18:57:20.459Z,17.02
2022-10-14T18:59:52.071Z,17.26
2022-10-14T19:02:21.276Z,17.22
2022-10-14T19:04:50.467Z,16.77
2022-10-14T19:07:19.584Z,17.31
2022-10-14T19:09:51.864Z,17.55
2022-10-14T19:12:41.578Z,17.87
2022-10-14T19:15:11.961Z,18.24
2022-10-14T19:17:41.335Z,18.17
2022-10-14T19:20:10.691Z,18.08
2022-10-14T19:22:45.561Z,17.80
2022-10-14T19:25:14.651Z,18.09
2022-10-14T19:27:44.548Z,18.35
2022-10-14T19:30:14.102Z,18.15
2022-10-14T19:32:43.153Z,18.42
2022-10-14T19:35:12.160Z,18.54
2022-10-14T19:37:41.279Z,18.65
2022-10-14T19:40:10.624Z,18.80
2022-10-14T19:42:39.689Z,18.76
2022-10-14T19:45:08.949Z,19.04
2022-10-14T19:47:38.084Z,19.13
2022-10-14T19:50:07.772Z,19.42
2022-10-14T19:52:37.041Z,19.45
2022-10-14T19:55:06.923Z,19.15
2022-10-14T19:57:36.172Z,19.45
2022-10-14T20:00:05.601Z,19.75
2022-10-14T20:02:34.953Z,19.98
2022-10-14T20:05:04.295Z,20.25
2022-10-14T20:07:33.411Z,20.44
2022-10-14T20:10:03.180Z,20.46
2022-10-14T20:12:32.488Z,20.54
2022-10-14T20:15:01.448Z,20.93
2022-10-14T20:17:30.534Z,21.20
2022-10-14T20:19:59.722Z,21.23
2022-10-14T20:22:30.046Z,21.65
2022-10-14T20:24:59.427Z,21.87
2022-10-14T20:27:28.379Z,21.85
2022-10-14T20:29:57.568Z,21.90
2022-10-14T20:32:26.579Z,22.04
2022-10-14T20:34:55.695Z,22.27
2022-10-14T20:37:27.363Z,22.21
2022-10-14T20:39:57.362Z,22.19
2022-10-14T20:42:26.432Z,21.97
2022-10-14T20:44:55.665Z,21.56
2022-10-14T20:47:24.758Z,21.96
2022-10-14T20:49:54.133Z,22.18
2022-10-14T20:52:23.143Z,22.17
2022-10-14T20:54:52.245Z,22.24
2022-10-14T20:57:21.566Z,22.39
2022-10-14T20:59:50.798Z,22.70
2022-10-14T21:02:22.154Z,22.06
2022-10-14T21:04:54.712Z,22.61
2022-10-14T21:07:24.303Z,22.36
2022-10-14T21:09:53.678Z,22.02
2022-10-14T21:12:23.010Z,22.09
2022-10-14T21:14:52.251Z,22.52
2022-10-14T21:17:21.256Z,22.68
2022-10-14T21:19:50.542Z,23.13
2022-10-14T21:22:19.584Z,23.31
2022-10-14T21:24:49.338Z,23.46
2022-10-14T21:27:18.602Z,23.57
2022-10-14T21:29:50.629Z,23.72
2022-10-14T21:32:19.831Z,23.27
2022-10-14T21:34:48.863Z,23.08
2022-10-14T21:37:18.994Z,22.84
2022-10-14T21:39:48.370Z,23.41
2022-10-14T21:42:17.626Z,23.41
2022-10-14T21:44:46.878Z,23.45
2022-10-14T21:47:15.892Z,23.49
2022-10-14T21:49:45.233Z,23.38
2022-10-14T21:52:14.258Z,23.29
2022-10-14T21:54:43.517Z,23.37
2022-10-14T21:57:12.851Z,23.21
2022-10-14T21:59:42.051Z,23.59
2022-10-14T22:02:11.594Z,23.59
2022-10-14T22:04:41.630Z,23.63
2022-10-14T22:07:11.526Z,23.83
2022-10-14T22:09:40.767Z,23.58
2022-10-14T22:12:09.803Z,23.88
2022-10-14T22:14:38.995Z,23.20
2022-10-14T22:17:08.067Z,23.24
2022-10-14T22:19:37.110Z,23.48
2022-10-14T22:22:06.246Z,23.89
2022-10-14T22:24:35.647Z,23.85
2022-10-14T22:27:05.382Z,24.09
2022-10-14T22:29:34.813Z,24.45
2022-10-14T22:32:05.324Z,24.34
2022-10-14T22:34:34.687Z,24.92
2022-10-14T22:37:03.861Z,25.51
2022-10-14T22:39:33.196Z,25.53
2022-10-14T22:42:02.910Z,24.48
2022-10-14T22:44:32.019Z,24.75
2022-10-14T22:47:01.000Z,25.23
2022-10-14T22:49:30.759Z,24.71
2022-10-14T22:51:59.792Z,23.48
2022-10-14T22:54:30.735Z,23.29
2022-10-14T22:56:59.815Z,23.32
2022-10-14T22:59:30.500Z,23.51
2022-10-14T23:01:59.607Z,23.62
2022-10-14T23:04:30.560Z,23.83
2022-10-14T23:07:04.321Z,23.81
2022-10-14T23:12:09.493Z,22.91
2022-10-14T23:14:38.514Z,23.16
2022-10-14T23:17:07.549Z,23.32
2022-10-14T23:19:36.534Z,23.82
2022-10-14T23:22:05.664Z,24.21
2022-10-14T23:24:34.630Z,24.28
2022-10-14T23:27:05.890Z,24.29
2022-10-14T23:29:35.364Z,24.49
2022-10-14T23:32:04.802Z,24.23
2022-10-14T23:34:34.222Z,24.28
2022-10-14T23:37:03.734Z,24.12
2022-10-14T23:39:32.884Z,24.52
2022-10-14T23:42:02.558Z,24.75
2022-10-14T23:44:32.484Z,24.98
2022-10-14T23:47:01.665Z,24.92
2022-10-14T23:49:30.799Z,25.13
2022-10-14T23:52:00.129Z,24.89
2022-10-14T23:54:29.441Z,24.73
2022-10-14T23:56:58.818Z,24.78
2022-10-14T23:59:27.865Z,24.33
